createdAt,value
2018-07-23T00:00:05.366Z,979.9
2018-07-23T00:01:07.665Z,980
2018-07-23T00:02:08.923Z,980
2018-07-23T00:03:10.127Z,980
2018-07-23T00:04:11.363Z,979.9
2018-07-23T00:05:12.767Z,979.9
2018-07-23T00:06:13.935Z,979.9
2018-07-23T00:07:16.147Z,979.9
2018-07-23T00:08:17.329Z,979.9
2018-07-23T00:09:18.543Z,980
2018-07-23T00:10:19.792Z,980
2018-07-23T00:11:20.985Z,980
2018-07-23T00:12:22.207Z,979.9
2018-07-23T00:13:23.391Z,980
2018-07-23T00:14:24.898Z,979.9
2018-07-23T00:15:26.090Z,980
2018-07-23T00:16:27.271Z,980
2018-07-23T00:17:28.452Z,980
2018-07-23T00:18:29.629Z,980
2018-07-23T00:19:31.723Z,980
2018-07-23T00:20:32.949Z,980
2018-07-23T00:21:34.119Z,980
2018-07-23T00:22:35.315Z,980
2018-07-23T00:23:36.495Z,980
2018-07-23T00:24:37.734Z,980
2018-07-23T00:25:40.152Z,980
2018-07-23T00:26:41.340Z,979.9
2018-07-23T00:27:42.554Z,979.9
2018-07-23T00:28:43.852Z,980
2018-07-23T00:29:45.090Z,980
2018-07-23T00:30:46.278Z,979.9
2018-07-23T00:31:47.466Z,980
2018-07-23T00:32:48.623Z,980
2018-07-23T00:33:49.888Z,979.9
2018-07-23T00:34:51.418Z,979.9
2018-07-23T00:35:55.043Z,979.9
2018-07-23T00:36:56.241Z,979.9
2018-07-23T00:37:57.436Z,979.9
2018-07-23T00:38:58.600Z,979.9
2018-07-23T00:39:59.858Z,979.9
2018-07-23T00:41:01.394Z,979.9
2018-07-23T00:42:02.574Z,979.9
2018-07-23T00:43:03.812Z,979.9
2018-07-23T00:44:04.987Z,980
2018-07-23T00:45:06.201Z,980
2018-07-23T00:46:08.231Z,979.9
2018-07-23T00:47:09.461Z,980
2018-07-23T00:48:10.679Z,979.9
2018-07-23T00:49:11.919Z,979.9
2018-07-23T00:50:13.180Z,979.9
2018-07-23T00:51:15.821Z,979.8
2018-07-23T00:52:18.036Z,979.9
2018-07-23T00:53:19.207Z,980
2018-07-23T00:54:20.401Z,980
2018-07-23T00:55:21.674Z,980
2018-07-23T00:56:22.876Z,980
2018-07-23T00:57:24.205Z,980
2018-07-23T00:58:25.423Z,980
2018-07-23T00:59:26.698Z,980
2018-07-23T01:00:27.929Z,980
2018-07-23T01:01:29.124Z,979.9
2018-07-23T01:02:30.366Z,980
2018-07-23T01:03:31.536Z,980
2018-07-23T01:04:33.045Z,980
2018-07-23T01:05:34.576Z,979.9
2018-07-23T01:06:35.758Z,979.9
2018-07-23T01:07:38.713Z,979.9
2018-07-23T01:08:39.909Z,979.9
2018-07-23T01:09:41.108Z,979.9
2018-07-23T01:10:42.339Z,979.9
2018-07-23T01:11:43.553Z,979.9
2018-07-23T01:12:44.738Z,979.9
2018-07-23T01:13:45.936Z,979.9
2018-07-23T01:14:47.149Z,979.9
2018-07-23T01:15:49.414Z,979.9
2018-07-23T01:16:50.654Z,979.9
2018-07-23T01:17:51.867Z,979.9
2018-07-23T01:18:53.367Z,979.9
2018-07-23T01:19:54.591Z,979.9
2018-07-23T01:20:55.856Z,979.9
2018-07-23T01:21:57.035Z,979.9
2018-07-23T01:22:58.232Z,979.9
2018-07-23T01:23:59.406Z,979.9
2018-07-23T01:25:00.585Z,979.8
2018-07-23T01:26:01.856Z,979.8
2018-07-23T01:27:03.044Z,979.8
2018-07-23T01:28:04.645Z,979.8
2018-07-23T01:29:05.844Z,979.8
2018-07-23T01:30:07.316Z,979.9
2018-07-23T01:31:08.541Z,979.8
2018-07-23T01:32:09.746Z,979.8
2018-07-23T01:33:10.951Z,979.9
2018-07-23T01:34:12.196Z,979.9
2018-07-23T01:35:13.372Z,979.9
2018-07-23T01:36:14.855Z,979.8
2018-07-23T01:37:16.051Z,979.8
2018-07-23T01:38:17.276Z,979.8
2018-07-23T01:39:19.449Z,979.8
2018-07-23T01:40:20.632Z,979.8
2018-07-23T01:41:21.845Z,979.8
2018-07-23T01:42:23.023Z,979.8
2018-07-23T01:43:24.202Z,979.8
2018-07-23T01:44:25.398Z,979.8
2018-07-23T01:45:26.641Z,979.8
2018-07-23T01:46:27.922Z,979.8
2018-07-23T01:47:30.340Z,979.8
2018-07-23T01:48:31.535Z,979.8
2018-07-23T01:49:32.708Z,979.8
2018-07-23T01:50:34.143Z,979.9
2018-07-23T01:51:38.323Z,979.8
2018-07-23T01:52:39.546Z,979.9
2018-07-23T01:53:40.742Z,979.9
2018-07-23T01:54:41.915Z,979.9
2018-07-23T01:55:43.086Z,979.9
2018-07-23T01:56:44.307Z,979.9
2018-07-23T01:57:45.550Z,979.9
2018-07-23T01:58:46.741Z,979.9
2018-07-23T01:59:47.947Z,980
2018-07-23T02:00:49.244Z,980
2018-07-23T02:01:50.499Z,980
2018-07-23T02:02:51.927Z,980
2018-07-23T02:03:53.154Z,980
2018-07-23T02:04:54.356Z,980
2018-07-23T02:05:55.529Z,980
2018-07-23T02:06:57.212Z,980
2018-07-23T02:07:58.447Z,980
2018-07-23T02:08:59.635Z,980
2018-07-23T02:10:00.833Z,980
2018-07-23T02:11:02.054Z,980
2018-07-23T02:12:03.283Z,980
2018-07-23T02:13:04.486Z,980
2018-07-23T02:14:05.714Z,980
2018-07-23T02:15:06.939Z,979.9
2018-07-23T02:16:08.167Z,980
2018-07-23T02:17:09.435Z,980
2018-07-23T02:18:10.729Z,980
2018-07-23T02:19:11.918Z,980.1
2018-07-23T02:20:13.143Z,980
2018-07-23T02:21:14.344Z,980
2018-07-23T02:22:16.317Z,980
2018-07-23T02:23:17.533Z,980
2018-07-23T02:24:18.717Z,980
2018-07-23T02:25:19.927Z,980
2018-07-23T02:26:21.167Z,980
2018-07-23T02:27:22.389Z,980.1
2018-07-23T02:28:23.614Z,980.1
2018-07-23T02:29:24.799Z,980.1
2018-07-23T02:30:26.015Z,980.1
2018-07-23T02:31:27.243Z,980.1
2018-07-23T02:32:28.491Z,980.2
2018-07-23T02:33:29.695Z,980.1
2018-07-23T02:34:30.954Z,980.1
2018-07-23T02:35:32.150Z,980.1
2018-07-23T02:36:34.214Z,980.1
2018-07-23T02:37:35.641Z,980.2
2018-07-23T02:38:36.827Z,980.1
2018-07-23T02:39:38.020Z,980
2018-07-23T02:40:39.235Z,980.2
2018-07-23T02:41:40.417Z,980.1
2018-07-23T02:42:41.687Z,980.1
2018-07-23T02:43:42.917Z,980.2
2018-07-23T02:44:44.415Z,980.2
2018-07-23T02:45:45.596Z,980.2
2018-07-23T02:46:46.838Z,980.2
2018-07-23T02:47:50.144Z,980.1
2018-07-23T02:48:51.378Z,980.2
2018-07-23T02:49:52.576Z,980.1
2018-07-23T02:50:53.780Z,980.2
2018-07-23T02:51:54.972Z,980.2
2018-07-23T02:52:56.636Z,980.2
2018-07-23T02:53:57.838Z,980.2
2018-07-23T02:54:59.043Z,980.2
2018-07-23T02:56:00.326Z,980.2
2018-07-23T02:57:01.536Z,980.1
2018-07-23T02:58:03.131Z,980.2
2018-07-23T02:59:04.328Z,980.2
2018-07-23T03:00:05.538Z,980
2018-07-23T03:01:06.724Z,980.2
2018-07-23T03:02:08.036Z,980.2
2018-07-23T03:03:09.269Z,980.2
2018-07-23T03:04:10.475Z,980.2
2018-07-23T03:05:11.708Z,980.2
2018-07-23T03:06:12.895Z,980.2
2018-07-23T03:07:14.104Z,980.2
2018-07-23T03:08:15.566Z,980.2
2018-07-23T03:09:16.767Z,980.3
2018-07-23T03:10:17.966Z,980.2
2018-07-23T03:11:19.416Z,980.1
2018-07-23T03:12:20.667Z,980.3
2018-07-23T03:13:21.888Z,980.3
2018-07-23T03:14:23.107Z,980.2
2018-07-23T03:15:24.338Z,980.3
2018-07-23T03:16:25.537Z,980.3
2018-07-23T03:17:26.754Z,980.3
2018-07-23T03:18:27.992Z,980.3
2018-07-23T03:19:29.158Z,980.3
2018-07-23T03:20:30.383Z,980.3
2018-07-23T03:21:31.612Z,980.3
2018-07-23T03:22:35.252Z,980.3
2018-07-23T03:23:36.529Z,980.3
2018-07-23T03:24:37.775Z,980.4
2018-07-23T03:25:38.967Z,980.3
2018-07-23T03:26:40.147Z,980.3
2018-07-23T03:27:41.337Z,980.4
2018-07-23T03:28:42.567Z,980.3
2018-07-23T03:29:43.759Z,980.3
2018-07-23T03:30:44.994Z,980.2
2018-07-23T03:31:47.167Z,980.3
2018-07-23T03:32:48.384Z,980.3
2018-07-23T03:33:49.623Z,980.3
2018-07-23T03:34:50.871Z,980.3
2018-07-23T03:35:52.550Z,980.2
2018-07-23T03:36:53.837Z,980.2
2018-07-23T03:37:55.018Z,980.3
2018-07-23T03:38:57.311Z,980.3
2018-07-23T03:39:58.804Z,980.3
2018-07-23T03:40:59.974Z,980.3
2018-07-23T03:42:01.235Z,979.9
2018-07-23T03:43:02.406Z,980.3
2018-07-23T03:44:03.632Z,980.3
2018-07-23T03:45:04.854Z,980.2
2018-07-23T03:46:07.040Z,980.3
2018-07-23T03:47:08.222Z,980.4
2018-07-23T03:48:09.470Z,980.3
2018-07-23T03:49:10.732Z,980.4
2018-07-23T03:50:12.009Z,980.3
2018-07-23T03:51:13.259Z,980.4
2018-07-23T03:52:14.464Z,980.4
2018-07-23T03:53:16.505Z,980.4
2018-07-23T03:54:17.797Z,980.4
2018-07-23T03:55:19.605Z,980.4
2018-07-23T03:56:21.347Z,980.4
2018-07-23T03:57:22.604Z,980.4
2018-07-23T03:58:23.783Z,980.4
2018-07-23T03:59:25.062Z,980.4
2018-07-23T04:00:26.261Z,980.5
2018-07-23T04:01:27.628Z,980.4
2018-07-23T04:02:28.809Z,980.5
2018-07-23T04:03:30.058Z,980.5
2018-07-23T04:04:31.286Z,980.5
2018-07-23T04:05:32.480Z,980.5
2018-07-23T04:06:33.704Z,980.5
2018-07-23T04:07:34.884Z,980.6
2018-07-23T04:08:36.077Z,980.6
2018-07-23T04:09:38.512Z,980.6
2018-07-23T04:10:39.724Z,980.6
2018-07-23T04:11:40.920Z,980.6
2018-07-23T04:12:43.495Z,980.5
2018-07-23T04:13:44.672Z,980.6
2018-07-23T04:14:45.934Z,980.7
2018-07-23T04:15:48.315Z,980.7
2018-07-23T04:16:49.490Z,980.7
2018-07-23T04:17:50.746Z,980.4
2018-07-23T04:18:52.851Z,980.8
2018-07-23T04:19:54.131Z,980.7
2018-07-23T04:20:55.618Z,980.7
2018-07-23T04:21:56.813Z,980.7
2018-07-23T04:22:57.992Z,980.7
2018-07-23T04:23:59.181Z,980.8
2018-07-23T04:25:01.415Z,980.8
2018-07-23T04:26:02.601Z,980.8
2018-07-23T04:27:03.855Z,980.8
2018-07-23T04:28:06.909Z,980.8
2018-07-23T04:29:08.090Z,980.8
2018-07-23T04:30:09.304Z,980.8
2018-07-23T04:31:10.519Z,980.8
2018-07-23T04:32:11.731Z,980.8
2018-07-23T04:33:12.957Z,980.8
2018-07-23T04:34:16.278Z,980.8
2018-07-23T04:35:17.536Z,980.8
2018-07-23T04:36:18.756Z,980.7
2018-07-23T04:37:19.966Z,980.8
2018-07-23T04:38:21.159Z,980.8
2018-07-23T04:39:23.371Z,980.8
2018-07-23T04:40:24.874Z,980.8
2018-07-23T04:41:26.107Z,980.8
2018-07-23T04:42:27.306Z,980.8
2018-07-23T04:43:28.514Z,980.8
2018-07-23T04:44:29.747Z,980.9
2018-07-23T04:45:30.967Z,980.8
2018-07-23T04:46:32.689Z,980.8
2018-07-23T04:47:33.875Z,980.8
2018-07-23T04:48:35.100Z,980.8
2018-07-23T04:49:36.331Z,980.8
2018-07-23T04:50:37.584Z,980.8
2018-07-23T04:51:38.759Z,980.8
2018-07-23T04:52:39.959Z,980.8
2018-07-23T04:53:41.349Z,980.8
2018-07-23T04:54:42.566Z,980.8
2018-07-23T04:55:43.816Z,980.9
2018-07-23T04:56:45.146Z,980.9
2018-07-23T04:57:46.264Z,980.9
2018-07-23T04:58:48.891Z,980.9
2018-07-23T04:59:50.089Z,980.9
2018-07-23T05:00:51.626Z,980.8
2018-07-23T05:01:52.856Z,980.9
2018-07-23T05:02:54.073Z,980.8
2018-07-23T05:03:55.259Z,980.9
2018-07-23T05:04:57.701Z,980.9
2018-07-23T05:05:58.919Z,980.9
2018-07-23T05:07:02.230Z,980.9
2018-07-23T05:08:03.418Z,981
2018-07-23T05:09:04.663Z,981
2018-07-23T05:10:06.860Z,981
2018-07-23T05:11:08.381Z,981.1
2018-07-23T05:12:09.618Z,981.1
2018-07-23T05:13:10.820Z,981.1
2018-07-23T05:14:12.068Z,981.2
2018-07-23T05:15:13.214Z,981.2
2018-07-23T05:16:14.442Z,981.2
2018-07-23T05:17:16.394Z,981.2
2018-07-23T05:18:17.624Z,981.3
2018-07-23T05:19:18.835Z,981.3
2018-07-23T05:20:20.044Z,981.3
2018-07-23T05:21:22.432Z,981.4
2018-07-23T05:22:23.759Z,981.4
2018-07-23T05:23:24.951Z,981.4
2018-07-23T05:24:26.135Z,981.5
2018-07-23T05:25:27.339Z,981.5
2018-07-23T05:26:29.529Z,981.5
2018-07-23T05:27:30.783Z,981.5
2018-07-23T05:28:32.020Z,981.5
2018-07-23T05:29:33.208Z,981.5
2018-07-23T05:30:34.407Z,981.5
2018-07-23T05:31:35.684Z,981.5
2018-07-23T05:32:36.887Z,981.5
2018-07-23T05:33:38.103Z,981.4
2018-07-23T05:34:39.632Z,981.5
2018-07-23T05:35:40.839Z,981.5
2018-07-23T05:36:42.102Z,981.4
2018-07-23T05:37:43.290Z,981.5
2018-07-23T05:38:44.581Z,981.5
2018-07-23T05:39:45.767Z,981.5
2018-07-23T05:40:46.974Z,981.5
2018-07-23T05:41:48.482Z,981.5
2018-07-23T05:42:49.700Z,981.5
2018-07-23T05:43:50.966Z,981.5
2018-07-23T05:44:52.219Z,981.5
2018-07-23T05:45:53.416Z,981.5
2018-07-23T05:46:54.654Z,981.5
2018-07-23T05:47:55.843Z,981.6
2018-07-23T05:48:57.117Z,981.5
2018-07-23T05:49:58.347Z,981.6
2018-07-23T05:50:59.623Z,981.7
2018-07-23T05:52:01.002Z,981.6
2018-07-23T05:53:02.264Z,981.7
2018-07-23T05:54:03.568Z,981.7
2018-07-23T05:55:04.799Z,981.8
2018-07-23T05:56:06.238Z,981.7
2018-07-23T05:57:07.641Z,981.8
2018-07-23T05:58:08.847Z,981.8
2018-07-23T05:59:13.105Z,981.8
2018-07-23T06:00:14.323Z,981.9
2018-07-23T06:01:15.531Z,981.9
2018-07-23T06:02:16.884Z,981.9
2018-07-23T06:03:18.413Z,981.7
2018-07-23T06:04:19.699Z,981.9
2018-07-23T06:05:20.925Z,981.9
2018-07-23T06:06:24.275Z,981.9
2018-07-23T06:07:25.516Z,981.9
2018-07-23T06:08:26.723Z,982
2018-07-23T06:09:27.916Z,982
2018-07-23T06:10:29.102Z,982
2018-07-23T06:11:30.295Z,982
2018-07-23T06:12:31.641Z,982
2018-07-23T06:13:32.998Z,982.1
2018-07-23T06:14:34.139Z,982.1
2018-07-23T06:15:37.123Z,982.2
2018-07-23T06:16:38.349Z,982.2
2018-07-23T06:17:40.130Z,982.2
2018-07-23T06:18:41.419Z,982.2
2018-07-23T06:19:42.691Z,982.3
2018-07-23T06:20:43.945Z,982.3
2018-07-23T06:21:45.387Z,982.3
2018-07-23T06:22:46.819Z,982.3
2018-07-23T06:23:48.251Z,982.3
2018-07-23T06:24:49.805Z,982.3
2018-07-23T06:25:51.003Z,982.4
2018-07-23T06:26:52.244Z,982.4
2018-07-23T06:27:53.497Z,982.5
2018-07-23T06:28:54.725Z,982.6
2018-07-23T06:29:56.042Z,982.5
2018-07-23T06:30:57.314Z,982.5
2018-07-23T06:31:58.586Z,982.5
2018-07-23T06:32:59.865Z,982.6
2018-07-23T06:34:01.142Z,982.6
2018-07-23T06:35:02.690Z,982.6
2018-07-23T06:36:04.118Z,982.7
2018-07-23T06:37:07.268Z,982.7
2018-07-23T06:38:08.560Z,982.7
2018-07-23T06:39:09.807Z,982.8
2018-07-23T06:40:11.049Z,982.7
2018-07-23T06:41:12.385Z,982.8
2018-07-23T06:42:20.548Z,982.7
2018-07-23T06:43:21.870Z,982.7
2018-07-23T06:44:23.072Z,982.8
2018-07-23T06:45:24.286Z,982.8
2018-07-23T06:46:25.502Z,982.8
2018-07-23T06:47:27.900Z,982.9
2018-07-23T06:48:29.135Z,982.9
2018-07-23T06:49:31.451Z,982.8
2018-07-23T06:50:32.808Z,983
2018-07-23T06:51:34.055Z,982.9
2018-07-23T06:52:35.259Z,982.9
2018-07-23T06:53:36.724Z,982.9
2018-07-23T06:54:39.192Z,982.8
2018-07-23T06:55:40.444Z,983
2018-07-23T06:56:41.656Z,982.8
2018-07-23T06:57:45.309Z,982.9
2018-07-23T06:58:46.612Z,982.9
2018-07-23T06:59:47.879Z,983
2018-07-23T07:00:49.098Z,982.9
2018-07-23T07:01:50.375Z,982.9
2018-07-23T07:02:53.995Z,982.9
2018-07-23T07:03:55.298Z,982.9
2018-07-23T07:04:56.503Z,983.1
2018-07-23T07:06:00.308Z,983.1
2018-07-23T07:07:01.505Z,983
2018-07-23T07:08:02.726Z,983.1
2018-07-23T07:09:04.008Z,983
2018-07-23T07:10:05.248Z,982.9
2018-07-23T07:11:06.500Z,983
2018-07-23T07:12:09.846Z,983.1
2018-07-23T07:13:11.094Z,983.1
2018-07-23T07:14:13.451Z,983.1
2018-07-23T07:15:14.644Z,983.1
2018-07-23T07:16:15.889Z,983
2018-07-23T07:17:20.130Z,983.1
2018-07-23T07:18:21.426Z,983.1
2018-07-23T07:19:26.198Z,983.2
2018-07-23T07:20:27.461Z,983.1
2018-07-23T07:21:28.717Z,983.1
2018-07-23T07:22:30.120Z,983.1
2018-07-23T07:23:31.447Z,983.2
2018-07-23T07:24:32.874Z,983.2
2018-07-23T07:25:34.123Z,983.1
2018-07-23T07:26:35.374Z,983.2
2018-07-23T07:27:36.598Z,983
2018-07-23T07:28:38.768Z,983.2
2018-07-23T07:29:40.015Z,983.2
2018-07-23T07:30:41.204Z,983.1
2018-07-23T07:31:42.480Z,983.2
2018-07-23T07:32:46.147Z,983.2
2018-07-23T07:33:47.559Z,983.2
2018-07-23T07:34:48.919Z,983
2018-07-23T07:35:53.478Z,983.1
2018-07-23T07:36:57.098Z,983.2
2018-07-23T07:37:58.717Z,983.1
2018-07-23T07:39:02.379Z,983.1
2018-07-23T07:40:06.135Z,983.1
2018-07-23T07:41:12.586Z,983.1
2018-07-23T07:42:16.200Z,983.1
2018-07-23T07:43:17.411Z,983.1
2018-07-23T07:44:18.880Z,983
2018-07-23T07:45:21.398Z,983
2018-07-23T07:46:38.267Z,983.1
2018-07-23T07:47:39.509Z,983
2018-07-23T07:48:40.948Z,983.1
2018-07-23T07:49:42.359Z,983.1
2018-07-23T07:50:43.607Z,983.1
2018-07-23T07:51:44.812Z,983.1
2018-07-23T07:52:46.024Z,983.1
2018-07-23T07:53:47.223Z,983.1
2018-07-23T07:54:48.453Z,983
2018-07-23T07:55:49.737Z,982.9
2018-07-23T07:56:50.958Z,982.9
2018-07-23T07:57:53.226Z,982.9
2018-07-23T07:58:54.487Z,982.9
2018-07-23T07:59:55.664Z,983
2018-07-23T08:00:56.952Z,983
2018-07-23T08:01:58.356Z,983.1
2018-07-23T08:03:00.970Z,983
2018-07-23T08:04:02.267Z,983
2018-07-23T08:05:03.735Z,983.1
2018-07-23T08:06:07.365Z,983
2018-07-23T08:07:08.662Z,982.9
2018-07-23T08:08:09.858Z,982.9
2018-07-23T08:09:12.086Z,982.9
2018-07-23T08:10:13.358Z,982.9
2018-07-23T08:11:28.991Z,982.9
2018-07-23T08:12:30.246Z,982.9
2018-07-23T08:13:32.440Z,983
2018-07-23T08:14:36.046Z,983
2018-07-23T08:15:37.255Z,983
2018-07-23T08:16:38.895Z,983
2018-07-23T08:17:40.091Z,983
2018-07-23T08:18:41.331Z,982.9
2018-07-23T08:19:42.639Z,982.9
2018-07-23T08:20:43.916Z,983
2018-07-23T08:21:45.179Z,983.1
2018-07-23T08:22:58.235Z,983.1
2018-07-23T08:23:59.504Z,983.1
2018-07-23T08:25:00.722Z,983.1
2018-07-23T08:26:01.926Z,983
2018-07-23T08:27:04.399Z,983.1
2018-07-23T08:28:08.519Z,983
2018-07-23T08:29:11.208Z,983
2018-07-23T08:30:13.403Z,982.9
2018-07-23T08:31:20.864Z,983
2018-07-23T08:32:25.354Z,983
2018-07-23T08:33:27.022Z,983
2018-07-23T08:34:30.390Z,983
2018-07-23T08:35:32.715Z,983
2018-07-23T08:36:41.327Z,983
2018-07-23T08:37:44.303Z,982.9
2018-07-23T08:38:46.877Z,983.2
2018-07-23T08:39:48.483Z,983
2018-07-23T08:40:52.137Z,983
2018-07-23T08:41:54.158Z,983.1
2018-07-23T08:42:55.649Z,983.2
2018-07-23T08:43:56.860Z,983.1
2018-07-23T08:44:58.532Z,983.1
2018-07-23T08:46:02.272Z,983.1
2018-07-23T08:47:04.592Z,983.1
2018-07-23T08:48:05.835Z,983.1
2018-07-23T08:49:07.003Z,983.1
2018-07-23T08:50:09.293Z,983
2018-07-23T08:51:13.734Z,983
2018-07-23T08:52:17.376Z,982.9
2018-07-23T08:53:20.847Z,983.1
2018-07-23T08:54:22.913Z,983.1
2018-07-23T08:55:24.531Z,983.1
2018-07-23T08:56:29.359Z,983
2018-07-23T08:57:34.956Z,983
2018-07-23T08:58:37.261Z,983
2018-07-23T08:59:38.775Z,983
2018-07-23T09:00:40.252Z,983.1
2018-07-23T09:01:48.023Z,983.1
2018-07-23T09:02:52.771Z,983.1
2018-07-23T09:03:58.224Z,983
2018-07-23T09:04:59.450Z,983
2018-07-23T09:06:08.540Z,983
2018-07-23T09:07:12.474Z,982.8
2018-07-23T09:08:13.799Z,983
2018-07-23T09:09:17.923Z,983
2018-07-23T09:10:22.334Z,983
2018-07-23T09:11:26.332Z,982.9
2018-07-23T09:12:34.336Z,982.9
2018-07-23T09:13:35.591Z,983
2018-07-23T09:14:36.903Z,983
2018-07-23T09:15:38.349Z,983
2018-07-23T09:16:39.671Z,982.9
2018-07-23T09:17:42.831Z,982.9
2018-07-23T09:18:44.243Z,982.9
2018-07-23T09:19:46.833Z,982.9
2018-07-23T09:20:48.129Z,982.9
2018-07-23T09:21:49.345Z,982.9
2018-07-23T09:22:50.536Z,982.7
2018-07-23T09:23:52.670Z,982.8
2018-07-23T09:24:55.932Z,982.7
2018-07-23T09:25:57.193Z,982.8
2018-07-23T09:26:58.413Z,982.7
2018-07-23T09:27:59.663Z,982.8
2018-07-23T09:29:01.078Z,982.7
2018-07-23T09:30:02.372Z,982.8
2018-07-23T09:31:05.900Z,982.8
2018-07-23T09:32:07.288Z,982.8
2018-07-23T09:33:09.845Z,982.7
2018-07-23T09:34:13.844Z,982.7
2018-07-23T09:36:04.293Z,982.7
2018-07-23T09:37:05.753Z,982.5
2018-07-23T09:38:06.904Z,982.7
2018-07-23T09:39:11.336Z,982.6
2018-07-23T09:40:12.892Z,982.6
2018-07-23T09:41:14.367Z,982.6
2018-07-23T09:42:15.588Z,982.6
2018-07-23T09:43:16.855Z,982.6
2018-07-23T09:44:19.501Z,982.6
2018-07-23T09:45:23.141Z,982.7
2018-07-23T09:46:24.372Z,982.7
2018-07-23T09:47:25.616Z,982.7
2018-07-23T09:48:26.833Z,982.6
2018-07-23T09:49:30.374Z,982.6
2018-07-23T09:50:31.769Z,982.5
2018-07-23T09:51:36.275Z,982.5
2018-07-23T09:52:37.763Z,982.6
2018-07-23T09:53:39.238Z,982.6
2018-07-23T09:54:40.464Z,982.4
2018-07-23T09:55:41.668Z,982.6
2018-07-23T09:56:42.926Z,982.6
2018-07-23T09:57:53.356Z,982.6
2018-07-23T09:58:54.780Z,982.4
2018-07-23T09:59:56.026Z,982.5
2018-07-23T10:00:57.228Z,982.5
2018-07-23T10:01:58.500Z,982.5
2018-07-23T10:02:59.762Z,982.4
2018-07-23T10:04:00.939Z,982.4
2018-07-23T10:05:02.155Z,982.4
2018-07-23T10:06:03.651Z,982.5
2018-07-23T10:07:06.014Z,982.2
2018-07-23T10:08:08.231Z,982.3
2018-07-23T10:09:13.683Z,982.3
2018-07-23T10:10:17.263Z,982.3
2018-07-23T10:11:18.454Z,982.4
2018-07-23T10:12:19.733Z,982.4
2018-07-23T10:13:21.024Z,982.4
2018-07-23T10:14:22.320Z,982.4
2018-07-23T10:15:23.539Z,982.5
2018-07-23T10:16:24.844Z,982.5
2018-07-23T10:17:27.259Z,982.5
2018-07-23T10:18:28.497Z,982.5
2018-07-23T10:19:29.750Z,982.5
2018-07-23T10:20:30.976Z,982.4
2018-07-23T10:21:32.472Z,982.3
2018-07-23T10:22:34.038Z,982.4
2018-07-23T10:23:35.372Z,982.4
2018-07-23T10:24:36.579Z,982.4
2018-07-23T10:25:38.083Z,982.3
2018-07-23T10:26:39.312Z,982.2
2018-07-23T10:27:41.833Z,982.3
2018-07-23T10:28:43.042Z,982.2
2018-07-23T10:29:44.532Z,982.2
2018-07-23T10:30:45.746Z,982.3
2018-07-23T10:31:51.138Z,982.2
2018-07-23T10:32:53.562Z,982.4
2018-07-23T10:33:54.837Z,982.3
2018-07-23T10:34:59.421Z,982.3
2018-07-23T10:36:03.175Z,982.3
2018-07-23T10:37:06.390Z,982.3
2018-07-23T10:38:15.004Z,982.3
2018-07-23T10:39:16.251Z,982.2
2018-07-23T10:40:17.519Z,982.2
2018-07-23T10:41:18.763Z,982.2
2018-07-23T10:42:20.378Z,982.2
2018-07-23T10:43:21.882Z,982.2
2018-07-23T10:44:23.135Z,982.2
2018-07-23T10:45:24.476Z,982.2
2018-07-23T10:46:25.702Z,982.2
2018-07-23T10:47:31.919Z,982.2
2018-07-23T10:48:34.282Z,982.2
2018-07-23T10:49:39.519Z,982.1
2018-07-23T10:50:40.764Z,982.1
2018-07-23T10:51:46.699Z,982.1
2018-07-23T10:52:47.878Z,982.2
2018-07-23T10:53:51.302Z,982.2
2018-07-23T10:54:52.937Z,982.1
2018-07-23T10:55:54.725Z,982.2
2018-07-23T10:56:56.027Z,982.1
2018-07-23T10:57:57.330Z,982.1
2018-07-23T10:58:58.613Z,982.1
2018-07-23T10:59:59.935Z,982.2
2018-07-23T11:01:01.262Z,982.2
2018-07-23T11:02:02.802Z,982.1
2018-07-23T11:03:04.156Z,982.1
2018-07-23T11:04:06.693Z,982.1
2018-07-23T11:05:09.171Z,982.1
2018-07-23T11:06:16.247Z,982.1
2018-07-23T11:07:18.823Z,982
2018-07-23T11:08:21.173Z,982
2018-07-23T11:09:22.735Z,982.1
2018-07-23T11:10:24.304Z,982.1
2018-07-23T11:11:28.268Z,982.1
2018-07-23T11:12:30.881Z,982.1
2018-07-23T11:13:34.030Z,982.1
2018-07-23T11:14:36.225Z,982.1
2018-07-23T11:15:37.475Z,981.9
2018-07-23T11:16:38.717Z,982
2018-07-23T11:17:45.127Z,981.9
2018-07-23T11:18:46.589Z,982
2018-07-23T11:19:47.818Z,982
2018-07-23T11:20:49.249Z,982
2018-07-23T11:21:50.503Z,981.9
2018-07-23T11:22:51.728Z,982.1
2018-07-23T11:23:52.988Z,982
2018-07-23T11:24:55.196Z,981.9
2018-07-23T11:25:56.606Z,982
2018-07-23T11:27:02.495Z,982
2018-07-23T11:28:07.828Z,981.9
2018-07-23T11:29:12.760Z,981.9
2018-07-23T11:30:14.092Z,981.9
2018-07-23T11:31:19.654Z,981.9
2018-07-23T11:32:20.940Z,981.9
2018-07-23T11:33:22.165Z,981.8
2018-07-23T11:34:24.120Z,981.7
2018-07-23T11:35:26.416Z,981.8
2018-07-23T11:36:27.631Z,981.9
2018-07-23T11:37:28.843Z,981.9
2018-07-23T11:38:30.280Z,981.8
2018-07-23T11:39:31.597Z,981.8
2018-07-23T11:40:35.198Z,981.8
2018-07-23T11:41:36.485Z,981.6
2018-07-23T11:42:37.749Z,981.8
2018-07-23T11:43:39.411Z,981.7
2018-07-23T11:44:40.640Z,981.7
2018-07-23T11:45:42.150Z,981.7
2018-07-23T11:46:43.917Z,981.7
2018-07-23T11:47:47.510Z,981.7
2018-07-23T11:48:51.229Z,981.8
2018-07-23T11:49:52.424Z,981.7
2018-07-23T11:50:53.780Z,981.8
2018-07-23T11:52:02.155Z,981.8
2018-07-23T11:53:03.399Z,981.7
2018-07-23T11:54:11.865Z,981.7
2018-07-23T11:55:13.566Z,981.8
2018-07-23T11:56:19.675Z,981.7
2018-07-23T11:57:20.864Z,981.8
2018-07-23T11:58:22.627Z,981.8
2018-07-23T11:59:26.835Z,981.8
2018-07-23T12:00:28.254Z,981.8
2018-07-23T12:01:29.501Z,981.7
2018-07-23T12:02:33.204Z,981.8
2018-07-23T12:03:41.271Z,981.7
2018-07-23T12:04:42.646Z,981.8
2018-07-23T12:05:46.392Z,981.7
2018-07-23T12:06:47.657Z,981.7
2018-07-23T12:07:48.888Z,981.8
2018-07-23T12:08:51.255Z,981.8
2018-07-23T12:09:52.499Z,981.8
2018-07-23T12:10:56.131Z,981.7
2018-07-23T12:11:57.785Z,981.7
2018-07-23T12:12:59.068Z,981.6
2018-07-23T12:14:00.408Z,981.7
2018-07-23T12:15:01.770Z,981.7
2018-07-23T12:16:05.243Z,981.6
2018-07-23T12:17:06.812Z,981.7
2018-07-23T12:18:08.036Z,981.7
2018-07-23T12:19:09.245Z,981.7
2018-07-23T12:20:13.520Z,981.7
2018-07-23T12:21:14.785Z,981.8
2018-07-23T12:22:16.802Z,981.8
2018-07-23T12:23:18.138Z,981.9
2018-07-23T12:24:21.985Z,981.8
2018-07-23T12:25:23.508Z,981.8
2018-07-23T12:26:27.196Z,981.7
2018-07-23T12:27:28.791Z,981.7
2018-07-23T12:28:31.027Z,981.7
2018-07-23T12:29:34.614Z,981.6
2018-07-23T12:30:35.809Z,981.6
2018-07-23T12:31:37.631Z,981.7
2018-07-23T12:32:39.877Z,981.8
2018-07-23T12:33:41.242Z,981.7
2018-07-23T12:34:44.730Z,981.6
2018-07-23T12:35:48.440Z,981.6
2018-07-23T12:36:49.673Z,981.6
2018-07-23T12:37:53.002Z,981.7
2018-07-23T12:38:56.803Z,981.7
2018-07-23T12:39:58.085Z,981.6
2018-07-23T12:40:59.263Z,981.6
2018-07-23T12:42:05.326Z,981.6
2018-07-23T12:43:06.772Z,981.6
2018-07-23T12:44:08.222Z,981.6
2018-07-23T12:45:10.452Z,981.7
2018-07-23T12:46:11.713Z,981.7
2018-07-23T12:47:13.014Z,981.6
2018-07-23T12:48:14.337Z,981.7
2018-07-23T12:49:15.583Z,981.7
2018-07-23T12:50:17.060Z,981.7
2018-07-23T12:51:18.285Z,981.7
2018-07-23T12:52:21.730Z,981.7
2018-07-23T12:53:23.386Z,981.6
2018-07-23T12:54:24.836Z,981.7
2018-07-23T12:55:26.358Z,981.5
2018-07-23T12:56:27.631Z,981.6
2018-07-23T12:57:28.935Z,981.6
2018-07-23T12:58:33.364Z,981.5
2018-07-23T12:59:34.991Z,981.6
2018-07-23T13:00:37.322Z,981.5
2018-07-23T13:01:38.588Z,981.6
2018-07-23T13:02:39.858Z,981.6
2018-07-23T13:03:41.104Z,981.6
2018-07-23T13:04:42.344Z,981.6
2018-07-23T13:05:43.804Z,981.5
2018-07-23T13:06:45.222Z,981.4
2018-07-23T13:07:46.766Z,981.6
2018-07-23T13:08:48.270Z,981.6
2018-07-23T13:09:49.502Z,981.7
2018-07-23T13:10:50.995Z,981.5
2018-07-23T13:11:52.275Z,981.5
2018-07-23T13:12:55.048Z,981.6
2018-07-23T13:13:58.311Z,981.5
2018-07-23T13:15:00.865Z,981.6
2018-07-23T13:16:03.149Z,981.5
2018-07-23T13:17:04.473Z,981.5
2018-07-23T13:18:08.434Z,981.5
2018-07-23T13:19:09.702Z,981.6
2018-07-23T13:20:10.962Z,981.6
2018-07-23T13:21:14.540Z,981.6
2018-07-23T13:22:15.805Z,981.4
2018-07-23T13:23:19.096Z,981.6
2018-07-23T13:24:20.354Z,981.5
2018-07-23T13:25:21.612Z,981.5
2018-07-23T13:26:22.847Z,981.5